createdAt,value
2022-11-09T00:00:48.041Z,40.80
2022-11-09T00:05:57.867Z,40.80
2022-11-09T00:11:04.824Z,40.70
2022-11-09T00:16:11.136Z,40.70
2022-11-09T00:21:16.008Z,40.70
2022-11-09T00:26:20.560Z,40.70
2022-11-09T00:31:26.115Z,40.60
2022-11-09T00:36:31.151Z,40.60
2022-11-09T00:41:34.266Z,40.50
2022-11-09T00:46:38.776Z,40.50
2022-11-09T00:51:42.021Z,40.50
2022-11-09T00:56:45.231Z,40.50
2022-11-09T01:01:49.849Z,40.50
2022-11-09T01:06:52.999Z,41.50
2022-11-09T01:11:56.114Z,40.60
2022-11-09T01:17:00.596Z,40.50
2022-11-09T01:22:05.815Z,40.90
2022-11-09T01:27:09.161Z,40.40
2022-11-09T01:32:13.612Z,40.40
2022-11-09T01:37:17.068Z,40.80
2022-11-09T01:42:25.156Z,40.60
2022-11-09T01:47:29.676Z,41.00
2022-11-09T01:52:35.932Z,40.70
2022-11-09T01:57:43.119Z,40.40
2022-11-09T02:02:52.864Z,40.40
2022-11-09T02:07:57.584Z,40.50
2022-11-09T02:13:01.566Z,40.20
2022-11-09T02:18:07.534Z,40.20
2022-11-09T02:23:12.035Z,40.60
2022-11-09T02:28:16.535Z,40.60
2022-11-09T02:33:19.965Z,40.40
2022-11-09T02:38:24.648Z,40.30
2022-11-09T02:43:27.900Z,40.70
2022-11-09T02:48:31.082Z,41.60
2022-11-09T02:53:35.696Z,41.70
2022-11-09T02:58:38.804Z,41.90
2022-11-09T03:03:41.966Z,41.70
2022-11-09T03:08:46.785Z,41.90
2022-11-09T03:13:49.843Z,42.00
2022-11-09T03:18:53.297Z,41.90
2022-11-09T03:23:57.780Z,42.00
2022-11-09T03:29:00.876Z,42.20
2022-11-09T03:34:04.023Z,42.10
2022-11-09T03:39:11.493Z,42.10
2022-11-09T03:44:14.571Z,42.20
2022-11-09T03:49:17.790Z,41.90
2022-11-09T03:54:22.344Z,41.90
2022-11-09T03:59:25.437Z,42.00
2022-11-09T04:04:28.534Z,41.80
2022-11-09T04:09:33.030Z,42.00
2022-11-09T04:14:36.111Z,42.20
2022-11-09T04:19:39.245Z,42.20
2022-11-09T04:24:43.703Z,42.20
2022-11-09T04:29:46.949Z,42.40
2022-11-09T04:34:50.114Z,42.10
2022-11-09T04:39:54.593Z,42.20
2022-11-09T04:44:57.693Z,42.40
2022-11-09T04:50:00.778Z,42.30
2022-11-09T04:55:06.319Z,42.20
2022-11-09T05:00:11.832Z,42.40
2022-11-09T05:05:15.192Z,42.40
2022-11-09T05:10:19.874Z,42.20
2022-11-09T05:15:22.944Z,42.30
2022-11-09T05:20:26.465Z,42.00
2022-11-09T05:25:30.921Z,42.00
2022-11-09T05:30:34.039Z,42.10
2022-11-09T05:35:37.153Z,42.20
2022-11-09T05:40:41.592Z,42.50
2022-11-09T05:45:44.980Z,42.90
2022-11-09T05:50:48.088Z,42.80
2022-11-09T05:55:53.051Z,42.70
2022-11-09T06:00:56.107Z,43.20
2022-11-09T06:06:07.803Z,43.00
2022-11-09T06:11:18.461Z,43.40
2022-11-09T06:16:26.185Z,43.60
2022-11-09T06:21:29.254Z,43.30
2022-11-09T06:26:33.786Z,43.50
2022-11-09T06:31:36.889Z,44.20
2022-11-09T06:36:40.062Z,43.80
2022-11-09T06:41:47.423Z,43.80
2022-11-09T06:46:50.956Z,44.20
2022-11-09T06:51:54.036Z,44.10
2022-11-09T06:56:58.502Z,44.20
2022-11-09T07:02:02.301Z,44.50
2022-11-09T07:07:05.472Z,44.20
2022-11-09T07:12:10.533Z,44.90
2022-11-09T07:17:13.691Z,44.70
2022-11-09T07:22:17.027Z,44.30
2022-11-09T07:27:27.302Z,44.30
2022-11-09T07:32:54.203Z,44.80
2022-11-09T07:38:00.583Z,44.70
2022-11-09T07:43:07.468Z,44.80
2022-11-09T07:48:11.980Z,45.50
2022-11-09T07:53:16.457Z,45.30
2022-11-09T07:58:20.876Z,44.50
2022-11-09T08:03:25.673Z,44.60
2022-11-09T08:08:28.756Z,44.50
2022-11-09T08:13:33.251Z,44.30
2022-11-09T08:18:36.365Z,44.50
2022-11-09T08:23:39.422Z,44.20
2022-11-09T08:28:43.930Z,44.10
2022-11-09T08:33:47.016Z,44.20
2022-11-09T08:38:50.104Z,44.10
2022-11-09T08:43:54.556Z,44.00
2022-11-09T08:48:57.639Z,44.30
2022-11-09T08:54:00.869Z,44.00
2022-11-09T08:59:05.349Z,44.10
2022-11-09T09:04:08.446Z,44.30
2022-11-09T09:09:11.539Z,44.00
2022-11-09T09:14:16.471Z,44.00
2022-11-09T09:19:19.547Z,44.40
2022-11-09T09:24:24.033Z,44.10
2022-11-09T09:29:28.795Z,44.10
2022-11-09T09:34:31.941Z,44.30
2022-11-09T09:39:35.049Z,44.30
2022-11-09T09:44:42.518Z,44.60
2022-11-09T09:49:48.583Z,44.80
2022-11-09T09:54:59.124Z,44.60
2022-11-09T10:00:07.199Z,44.70
2022-11-09T10:05:16.609Z,45.30
2022-11-09T10:10:44.489Z,44.30
2022-11-09T10:15:53.732Z,44.30
2022-11-09T10:21:16.887Z,44.40
2022-11-09T10:26:23.925Z,43.80
2022-11-09T10:31:33.402Z,44.30
2022-11-09T10:36:45.009Z,43.90
2022-11-09T10:41:48.088Z,44.00
2022-11-09T10:47:07.431Z,44.30
2022-11-09T10:52:32.920Z,43.60
2022-11-09T10:57:36.057Z,42.90
2022-11-09T11:02:50.143Z,43.90
2022-11-09T11:07:53.300Z,43.30
2022-11-09T11:13:22.759Z,44.20
2022-11-09T11:18:28.383Z,44.00
2022-11-09T11:23:32.503Z,44.30
2022-11-09T11:28:41.691Z,43.70
2022-11-09T11:33:46.387Z,43.20
2022-11-09T11:38:57.624Z,43.00
2022-11-09T11:44:12.300Z,42.70
2022-11-09T11:49:45.159Z,42.60
2022-11-09T11:55:07.345Z,42.60
2022-11-09T12:00:15.075Z,42.20
2022-11-09T12:06:09.549Z,42.20
2022-11-09T12:11:21.762Z,42.40
2022-11-09T12:16:32.331Z,42.20
2022-11-09T12:21:41.411Z,42.20
2022-11-09T12:27:25.475Z,42.20
2022-11-09T12:32:35.281Z,42.30
2022-11-09T12:37:45.794Z,41.80
2022-11-09T12:42:53.172Z,42.00
2022-11-09T12:47:59.920Z,42.20
2022-11-09T12:53:05.421Z,42.30
2022-11-09T12:58:08.568Z,42.00
2022-11-09T13:03:23.792Z,42.10
2022-11-09T13:08:30.680Z,41.40
2022-11-09T13:13:34.089Z,41.60
2022-11-09T13:18:52.494Z,41.90
2022-11-09T13:24:02.696Z,41.10
2022-11-09T13:29:22.583Z,41.20
2022-11-09T13:34:46.485Z,41.20
2022-11-09T13:39:51.026Z,41.10
2022-11-09T13:44:54.682Z,41.40
2022-11-09T13:49:58.676Z,41.30
2022-11-09T13:55:04.924Z,41.10
2022-11-09T14:00:18.863Z,40.60
2022-11-09T14:05:29.972Z,40.70
2022-11-09T14:10:46.338Z,40.30
2022-11-09T14:15:56.413Z,40.40
2022-11-09T14:21:09.091Z,40.30
2022-11-09T14:26:19.464Z,40.20
2022-11-09T14:31:24.939Z,40.40
2022-11-09T14:36:28.991Z,40.90
2022-11-09T14:41:33.951Z,40.80
2022-11-09T14:46:37.194Z,40.70
2022-11-09T14:51:41.639Z,40.90
2022-11-09T14:56:47.135Z,40.80
2022-11-09T15:02:02.017Z,41.10
2022-11-09T15:07:06.150Z,41.90
2022-11-09T15:12:16.648Z,41.10
2022-11-09T15:17:23.849Z,41.00
2022-11-09T15:22:51.722Z,41.00
2022-11-09T15:28:15.109Z,42.70
2022-11-09T15:33:24.371Z,41.50
2022-11-09T15:38:34.303Z,41.10
2022-11-09T15:43:39.146Z,41.00
2022-11-09T15:48:46.087Z,41.20
2022-11-09T15:53:49.622Z,41.20
2022-11-09T15:58:54.114Z,41.30
2022-11-09T16:03:57.255Z,41.20
2022-11-09T16:09:00.392Z,41.30
2022-11-09T16:14:05.463Z,41.30
2022-11-09T16:19:08.510Z,41.30
2022-11-09T16:24:11.669Z,41.40
2022-11-09T16:29:16.159Z,41.40
2022-11-09T16:34:19.250Z,41.30
2022-11-09T16:39:22.808Z,41.50
2022-11-09T16:44:32.308Z,41.70
2022-11-09T16:49:35.547Z,41.90
2022-11-09T16:54:38.661Z,41.90
2022-11-09T16:59:43.197Z,42.00
2022-11-09T17:04:46.267Z,42.20
2022-11-09T17:09:49.467Z,42.10
2022-11-09T17:14:53.909Z,42.20
2022-11-09T17:19:56.983Z,42.30
2022-11-09T17:25:00.051Z,42.20
2022-11-09T17:30:05.067Z,42.20
2022-11-09T17:35:08.482Z,42.30
2022-11-09T17:40:12.272Z,42.20
2022-11-09T17:45:17.090Z,42.20
2022-11-09T17:50:21.272Z,42.20
2022-11-09T17:55:24.431Z,42.10
2022-11-09T18:00:28.889Z,42.30
2022-11-09T18:05:32.004Z,42.60
2022-11-09T18:10:35.193Z,42.50
2022-11-09T18:15:40.667Z,42.60
2022-11-09T18:20:43.751Z,43.10
2022-11-09T18:25:57.186Z,43.00
2022-11-09T18:31:06.207Z,43.90
2022-11-09T18:36:12.207Z,44.30
2022-11-09T18:41:18.116Z,43.90
2022-11-09T18:46:23.075Z,44.10
2022-11-09T18:51:26.175Z,44.70
2022-11-09T18:56:29.311Z,44.20
2022-11-09T19:01:33.802Z,44.40
2022-11-09T19:06:37.157Z,45.60
2022-11-09T19:11:40.568Z,44.80
2022-11-09T19:16:45.220Z,44.80
2022-11-09T19:21:50.106Z,45.10
2022-11-09T19:26:55.692Z,45.20
2022-11-09T19:32:00.280Z,45.00
2022-11-09T19:37:03.477Z,45.80
2022-11-09T19:42:07.110Z,45.60
2022-11-09T19:47:11.710Z,45.90
2022-11-09T19:52:14.845Z,46.50
2022-11-09T19:57:17.971Z,46.20
2022-11-09T20:02:22.467Z,46.20
2022-11-09T20:07:25.568Z,46.90
2022-11-09T20:12:45.873Z,46.40
2022-11-09T20:17:50.413Z,46.30
2022-11-09T20:22:53.755Z,46.90
2022-11-09T20:27:57.033Z,46.60
2022-11-09T20:33:01.694Z,46.50
2022-11-09T20:38:04.915Z,47.10
2022-11-09T20:43:09.038Z,46.50
2022-11-09T20:48:31.390Z,46.60
2022-11-09T20:53:37.252Z,47.10
2022-11-09T20:58:40.657Z,46.70
2022-11-09T21:03:45.905Z,46.50
2022-11-09T21:08:51.006Z,46.90
2022-11-09T21:13:55.049Z,46.80
2022-11-09T21:18:59.536Z,46.90
2022-11-09T21:24:20.038Z,47.10
2022-11-09T21:29:42.657Z,46.70
2022-11-09T21:34:47.196Z,47.80
2022-11-09T21:39:50.514Z,47.30
2022-11-09T21:44:53.729Z,46.90
2022-11-09T21:49:58.342Z,47.10
2022-11-09T21:55:01.469Z,47.50
2022-11-09T22:00:05.375Z,47.10
2022-11-09T22:05:10.789Z,47.30
2022-11-09T22:10:13.946Z,47.70
2022-11-09T22:15:34.648Z,47.20
2022-11-09T22:20:57.275Z,47.30
2022-11-09T22:26:02.668Z,47.70
2022-11-09T22:31:07.294Z,47.90
2022-11-09T22:36:14.345Z,47.40
2022-11-09T22:41:17.644Z,48.00
2022-11-09T22:46:20.813Z,47.20
2022-11-09T22:51:25.489Z,47.20
2022-11-09T22:56:28.677Z,47.80
2022-11-09T23:01:32.064Z,47.40
2022-11-09T23:06:36.773Z,47.50
2022-11-09T23:11:39.904Z,48.00
2022-11-09T23:16:42.972Z,47.60
2022-11-09T23:21:47.529Z,47.60
2022-11-09T23:26:50.609Z,48.20
2022-11-09T23:31:53.717Z,47.80
2022-11-09T23:36:58.177Z,48.00
2022-11-09T23:42:01.303Z,48.50
2022-11-09T23:47:04.497Z,48.00
2022-11-09T23:52:09.860Z,48.70
2022-11-09T23:57:12.935Z,48.30
